createdAt,value
2018-04-23T00:01:48.638Z,17.33
2018-04-23T00:04:15.127Z,17.34
2018-04-23T00:06:41.517Z,17.37
2018-04-23T00:09:08.051Z,17.41
2018-04-23T00:11:34.579Z,17.42
2018-04-23T00:14:01.146Z,17.31
2018-04-23T00:16:27.689Z,17.26
2018-04-23T00:18:54.228Z,17.17
2018-04-23T00:21:20.706Z,17.12
2018-04-23T00:23:47.179Z,17.12
2018-04-23T00:26:13.624Z,17.08
2018-04-23T00:28:40.211Z,17.12
2018-04-23T00:31:06.769Z,17.11
2018-04-23T00:33:33.168Z,17.12
2018-04-23T00:35:59.680Z,17.12
2018-04-23T00:38:26.028Z,17.11
2018-04-23T00:40:52.616Z,17.09
2018-04-23T00:43:19.097Z,17.06
2018-04-23T00:45:45.518Z,17.02
2018-04-23T00:48:11.908Z,17.00
2018-04-23T00:50:38.397Z,16.95
2018-04-23T00:53:17.068Z,16.92
2018-04-23T00:55:43.478Z,16.93
2018-04-23T00:58:09.936Z,16.96
2018-04-23T01:00:36.344Z,17.00
2018-04-23T01:03:02.799Z,17.01
2018-04-23T01:05:29.323Z,16.96
2018-04-23T01:07:55.864Z,16.88
2018-04-23T01:10:22.313Z,16.81
2018-04-23T01:12:48.854Z,16.76
2018-04-23T01:15:15.427Z,16.81
2018-04-23T01:17:41.889Z,16.73
2018-04-23T01:20:08.567Z,16.65
2018-04-23T01:22:35.150Z,16.62
2018-04-23T01:25:01.680Z,16.62
2018-04-23T01:27:28.180Z,16.63
2018-04-23T01:29:54.645Z,16.58
2018-04-23T01:32:21.067Z,16.52
2018-04-23T01:34:47.497Z,16.50
2018-04-23T01:37:14.081Z,16.46
2018-04-23T01:39:40.505Z,16.41
2018-04-23T01:42:07.167Z,16.36
2018-04-23T01:44:33.620Z,16.32
2018-04-23T01:47:00.040Z,16.31
2018-04-23T01:49:26.636Z,16.24
2018-04-23T01:51:53.161Z,16.19
2018-04-23T01:54:19.551Z,16.21
2018-04-23T01:56:46.020Z,16.15
2018-04-23T01:59:12.488Z,16.13
2018-04-23T02:01:38.923Z,16.09
2018-04-23T02:04:05.427Z,16.04
2018-04-23T02:06:31.853Z,16.02
2018-04-23T02:08:58.320Z,16.00
2018-04-23T02:11:24.768Z,16.01
2018-04-23T02:13:51.316Z,15.99
2018-04-23T02:16:17.939Z,16.01
2018-04-23T02:18:44.509Z,15.97
2018-04-23T02:21:11.008Z,15.94
2018-04-23T02:23:37.461Z,15.87
2018-04-23T02:26:04.059Z,15.83
2018-04-23T02:28:30.474Z,15.81
2018-04-23T02:30:56.949Z,15.84
2018-04-23T02:33:23.451Z,15.88
2018-04-23T02:35:49.956Z,15.80
2018-04-23T02:38:16.479Z,15.78
2018-04-23T02:40:43.057Z,15.74
2018-04-23T02:43:09.476Z,15.70
2018-04-23T02:45:35.928Z,15.65
2018-04-23T02:48:02.501Z,15.68
2018-04-23T02:50:29.160Z,15.70
2018-04-23T02:52:55.723Z,15.70
2018-04-23T02:55:22.194Z,15.73
2018-04-23T02:57:48.578Z,15.72
2018-04-23T03:00:15.053Z,15.69
2018-04-23T03:02:41.624Z,15.62
2018-04-23T03:05:08.029Z,15.52
2018-04-23T03:07:34.492Z,15.43
2018-04-23T03:10:00.969Z,15.42
2018-04-23T03:12:27.409Z,15.38
2018-04-23T03:14:53.968Z,15.35
2018-04-23T03:17:20.446Z,15.34
2018-04-23T03:19:46.995Z,15.32
2018-04-23T03:22:13.526Z,15.31
2018-04-23T03:24:40.056Z,15.23
2018-04-23T03:27:06.579Z,15.19
2018-04-23T03:29:33.118Z,15.16
2018-04-23T03:31:59.624Z,15.10
2018-04-23T03:34:26.058Z,15.03
2018-04-23T03:36:52.663Z,15.02
2018-04-23T03:39:19.261Z,15.00
2018-04-23T03:41:45.682Z,15.03
2018-04-23T03:44:12.213Z,15.11
2018-04-23T03:46:38.753Z,15.17
2018-04-23T03:49:05.183Z,15.10
2018-04-23T03:51:31.660Z,15.09
2018-04-23T03:53:58.209Z,15.03
2018-04-23T03:56:24.748Z,15.00
2018-04-23T03:58:51.324Z,14.98
2018-04-23T04:01:17.817Z,14.96
2018-04-23T04:03:44.399Z,15.04
2018-04-23T04:06:10.882Z,15.11
2018-04-23T04:08:37.300Z,15.17
2018-04-23T04:11:03.796Z,15.13
2018-04-23T04:13:42.281Z,15.15
2018-04-23T04:16:20.807Z,15.18
2018-04-23T04:18:47.260Z,15.13
2018-04-23T04:21:13.774Z,15.12
2018-04-23T04:23:40.227Z,15.16
2018-04-23T04:26:06.740Z,15.11
2018-04-23T04:28:33.175Z,15.15
2018-04-23T04:30:59.639Z,15.16
2018-04-23T04:33:26.107Z,15.16
2018-04-23T04:35:52.543Z,15.19
2018-04-23T04:38:19.067Z,15.24
2018-04-23T04:40:45.639Z,15.27
2018-04-23T04:43:12.113Z,15.37
2018-04-23T04:45:38.661Z,15.41
2018-04-23T04:48:05.124Z,15.56
2018-04-23T04:50:31.532Z,15.65
2018-04-23T04:52:58.250Z,15.73
2018-04-23T04:55:24.824Z,15.81
2018-04-23T04:57:51.317Z,15.88
2018-04-23T05:00:17.773Z,15.98
2018-04-23T05:02:44.255Z,16.05
2018-04-23T05:05:10.841Z,16.13
2018-04-23T05:07:37.324Z,16.25
2018-04-23T05:10:03.890Z,16.33
2018-04-23T05:12:30.324Z,16.38
2018-04-23T05:14:56.847Z,16.41
2018-04-23T05:17:23.268Z,16.45
2018-04-23T05:19:49.819Z,16.51
2018-04-23T05:22:16.251Z,16.56
2018-04-23T05:24:42.745Z,16.67
2018-04-23T05:27:09.228Z,16.82
2018-04-23T05:29:35.804Z,16.85
2018-04-23T05:32:02.326Z,16.95
2018-04-23T05:34:28.728Z,17.03
2018-04-23T05:36:55.242Z,17.16
2018-04-23T05:39:21.807Z,17.26
2018-04-23T05:41:48.359Z,17.36
2018-04-23T05:44:14.768Z,17.45
2018-04-23T05:46:41.340Z,17.57
2018-04-23T05:49:07.828Z,17.64
2018-04-23T05:51:34.305Z,17.70
2018-04-23T05:54:00.905Z,17.72
2018-04-23T05:56:27.483Z,17.78
2018-04-23T05:58:54.004Z,17.71
2018-04-23T06:01:20.523Z,17.74
2018-04-23T06:03:46.996Z,17.74
2018-04-23T06:06:13.666Z,17.88
2018-04-23T06:08:40.317Z,18.02
2018-04-23T06:11:06.776Z,18.10
2018-04-23T06:13:33.280Z,18.20
2018-04-23T06:15:59.766Z,18.24
2018-04-23T06:18:26.216Z,18.37
2018-04-23T06:20:52.716Z,18.50
2018-04-23T06:23:19.197Z,18.63
2018-04-23T06:25:45.675Z,18.66
2018-04-23T06:28:12.266Z,18.75
2018-04-23T06:30:38.794Z,18.86
2018-04-23T06:33:05.263Z,18.98
2018-04-23T06:35:31.640Z,19.02
2018-04-23T06:37:58.115Z,19.11
2018-04-23T06:40:24.632Z,19.11
2018-04-23T06:42:51.102Z,19.08
2018-04-23T06:45:17.568Z,19.22
2018-04-23T06:47:44.161Z,19.43
2018-04-23T06:50:10.633Z,19.57
2018-04-23T06:52:36.973Z,19.66
2018-04-23T06:55:03.540Z,19.72
2018-04-23T06:57:30.055Z,19.78
2018-04-23T06:59:56.586Z,19.77
2018-04-23T07:02:23.089Z,19.60
2018-04-23T07:04:49.593Z,19.40
2018-04-23T07:07:16.174Z,19.29
2018-04-23T07:09:42.785Z,19.12
2018-04-23T07:12:09.357Z,19.21
2018-04-23T07:14:35.850Z,19.36
2018-04-23T07:17:02.461Z,19.60
2018-04-23T07:19:35.788Z,19.66
2018-04-23T07:22:02.301Z,19.64
2018-04-23T07:24:28.757Z,19.73
2018-04-23T07:26:55.240Z,19.85
2018-04-23T07:29:21.643Z,19.64
2018-04-23T07:31:48.186Z,19.78
2018-04-23T07:34:14.720Z,19.98
2018-04-23T07:36:41.270Z,20.07
2018-04-23T07:39:07.788Z,20.10
2018-04-23T07:41:34.215Z,20.12
2018-04-23T07:44:00.724Z,20.16
2018-04-23T07:46:27.133Z,20.18
2018-04-23T07:48:53.627Z,20.19
2018-04-23T07:51:20.043Z,20.27
2018-04-23T07:53:46.597Z,20.42
2018-04-23T07:56:13.200Z,20.55
2018-04-23T07:58:39.689Z,20.45
2018-04-23T08:01:06.187Z,20.57
2018-04-23T08:03:32.655Z,20.53
2018-04-23T08:05:59.213Z,20.70
2018-04-23T08:08:25.718Z,20.93
2018-04-23T08:10:52.179Z,21.22
2018-04-23T08:13:18.722Z,21.24
2018-04-23T08:15:45.291Z,21.31
2018-04-23T08:18:11.888Z,21.38
2018-04-23T08:20:38.396Z,21.31
2018-04-23T08:23:04.833Z,21.41
2018-04-23T08:25:31.299Z,21.43
2018-04-23T08:27:57.905Z,21.57
2018-04-23T08:30:24.513Z,21.71
2018-04-23T08:32:51.230Z,21.75
2018-04-23T08:35:17.736Z,21.83
2018-04-23T08:37:44.230Z,21.94
2018-04-23T08:40:10.720Z,21.91
2018-04-23T08:42:37.209Z,22.08
2018-04-23T08:45:03.691Z,22.04
2018-04-23T08:47:30.332Z,22.16
2018-04-23T08:49:56.828Z,22.25
2018-04-23T08:52:23.372Z,22.22
2018-04-23T08:54:49.861Z,22.14
2018-04-23T08:57:16.333Z,22.25
2018-04-23T08:59:42.848Z,22.42
2018-04-23T09:02:09.366Z,22.50
2018-04-23T09:04:35.856Z,22.45
2018-04-23T09:07:02.377Z,22.38
2018-04-23T09:09:28.812Z,22.48
2018-04-23T09:11:55.435Z,22.61
2018-04-23T09:14:22.150Z,22.59
2018-04-23T09:16:48.557Z,22.69
2018-04-23T09:19:15.070Z,22.72
2018-04-23T09:21:41.648Z,22.76
2018-04-23T09:24:08.194Z,22.96
2018-04-23T09:26:34.709Z,22.91
2018-04-23T09:29:01.189Z,22.91
2018-04-23T09:31:27.658Z,22.78
2018-04-23T09:33:54.085Z,23.01
2018-04-23T09:36:20.597Z,22.90
2018-04-23T09:38:47.068Z,22.79
2018-04-23T09:41:13.532Z,22.80
2018-04-23T09:43:39.989Z,23.00
2018-04-23T09:46:06.402Z,23.05
2018-04-23T09:48:32.979Z,23.04
2018-04-23T09:50:59.455Z,23.12
2018-04-23T09:53:25.895Z,23.22
2018-04-23T09:55:52.364Z,23.23
2018-04-23T09:58:18.873Z,23.16
2018-04-23T10:00:45.359Z,23.17
2018-04-23T10:03:11.986Z,23.20
2018-04-23T10:05:38.402Z,23.25
2018-04-23T10:08:04.875Z,23.41
2018-04-23T10:10:31.420Z,23.43
2018-04-23T10:12:58.022Z,23.46
2018-04-23T10:15:24.442Z,23.52
2018-04-23T10:17:50.869Z,23.51
2018-04-23T10:20:17.324Z,23.56
2018-04-23T10:22:43.835Z,23.53
2018-04-23T10:25:10.267Z,23.59
2018-04-23T10:27:36.828Z,23.61
2018-04-23T10:30:03.505Z,23.51
2018-04-23T10:32:30.028Z,23.50
2018-04-23T10:34:56.517Z,23.49
2018-04-23T10:37:23.068Z,23.57
2018-04-23T10:39:49.639Z,23.58
2018-04-23T10:42:16.228Z,23.62
2018-04-23T10:44:42.628Z,23.69
2018-04-23T10:47:09.157Z,23.70
2018-04-23T10:49:35.663Z,23.79
2018-04-23T10:52:02.153Z,23.65
2018-04-23T10:54:28.674Z,23.77
2018-04-23T10:56:55.226Z,23.69
2018-04-23T10:59:21.705Z,23.83
2018-04-23T11:01:48.247Z,23.84
2018-04-23T11:04:14.752Z,23.87
2018-04-23T11:06:41.273Z,23.89
2018-04-23T11:09:07.886Z,23.92
2018-04-23T11:11:34.474Z,24.00
2018-04-23T11:14:01.524Z,24.08
2018-04-23T11:16:28.117Z,24.19
2018-04-23T11:18:54.557Z,24.24
2018-04-23T11:21:21.078Z,24.25
2018-04-23T11:23:47.520Z,24.24
2018-04-23T11:26:14.078Z,24.26
2018-04-23T11:28:40.552Z,24.29
2018-04-23T11:31:07.149Z,24.26
2018-04-23T11:33:33.676Z,24.24
2018-04-23T11:36:00.272Z,24.22
2018-04-23T11:38:26.684Z,24.22
2018-04-23T11:40:53.104Z,24.30
2018-04-23T11:52:08.698Z,24.36
2018-04-23T11:54:35.273Z,24.38
2018-04-23T11:57:01.759Z,24.42
2018-04-23T11:59:28.312Z,24.44
2018-04-23T12:01:54.820Z,24.50
2018-04-23T12:04:21.282Z,24.40
2018-04-23T12:06:47.775Z,24.42
2018-04-23T12:09:14.239Z,24.50
2018-04-23T12:11:40.726Z,24.62
2018-04-23T12:14:07.272Z,24.59
2018-04-23T12:16:33.813Z,24.57
2018-04-23T12:19:00.313Z,24.63
2018-04-23T12:21:26.826Z,24.73
2018-04-23T12:23:53.331Z,24.69
2018-04-23T12:26:19.970Z,24.64
2018-04-23T12:37:06.934Z,24.59
2018-04-23T12:39:33.475Z,24.59
2018-04-23T12:41:59.911Z,24.63
2018-04-23T12:44:26.489Z,24.73
2018-04-23T12:46:53.006Z,24.83
2018-04-23T12:49:19.510Z,24.92
2018-04-23T12:51:46.013Z,24.96
2018-04-23T12:54:12.459Z,24.99
2018-04-23T12:56:38.858Z,25.04
2018-04-23T12:59:05.354Z,25.08
2018-04-23T13:01:31.885Z,25.04
2018-04-23T13:03:58.404Z,25.05
2018-04-23T13:06:24.853Z,25.17
2018-04-23T13:08:51.396Z,25.29
2018-04-23T13:11:17.900Z,25.22
2018-04-23T13:13:44.515Z,25.23
2018-04-23T13:16:10.958Z,25.21
2018-04-23T13:18:37.408Z,25.24
2018-04-23T13:21:03.991Z,25.26
2018-04-23T13:23:30.510Z,25.24
2018-04-23T13:25:57.036Z,25.18
2018-04-23T13:28:23.479Z,25.22
2018-04-23T13:30:50.010Z,25.31
2018-04-23T13:33:16.518Z,25.32
2018-04-23T13:35:43.012Z,25.34
2018-04-23T13:38:09.594Z,25.34
2018-04-23T13:40:35.971Z,25.40
2018-04-23T13:43:02.457Z,25.41
2018-04-23T13:45:28.953Z,25.43
2018-04-23T13:47:55.521Z,25.52
2018-04-23T13:50:22.095Z,25.57
2018-04-23T13:52:48.750Z,25.53
2018-04-23T13:55:15.292Z,25.46
2018-04-23T13:57:41.789Z,25.47
2018-04-23T14:00:08.282Z,25.41
2018-04-23T14:02:34.755Z,25.45
2018-04-23T14:05:01.297Z,25.46
2018-04-23T14:07:27.749Z,25.45
2018-04-23T14:09:54.142Z,25.48
2018-04-23T14:12:20.652Z,25.48
2018-04-23T14:14:47.133Z,25.48
2018-04-23T14:17:13.636Z,25.58
2018-04-23T14:19:40.236Z,25.59
2018-04-23T14:22:06.769Z,25.64
2018-04-23T14:24:33.248Z,25.68
2018-04-23T14:27:00.049Z,25.71
2018-04-23T14:29:26.625Z,25.68
2018-04-23T14:31:53.011Z,25.73
2018-04-23T14:34:19.583Z,25.79
2018-04-23T14:36:46.017Z,25.65
2018-04-23T14:39:12.926Z,25.65
2018-04-23T14:41:39.427Z,25.70
2018-04-23T14:44:05.999Z,25.70
2018-04-23T14:46:32.600Z,25.79
2018-04-23T14:48:59.017Z,25.73
2018-04-23T14:51:25.419Z,25.90
2018-04-23T14:53:51.844Z,25.94
2018-04-23T14:56:18.317Z,25.90
2018-04-23T14:58:45.062Z,25.85
2018-04-23T15:01:11.535Z,25.80
2018-04-23T15:03:37.972Z,25.85
2018-04-23T15:06:04.421Z,25.79
2018-04-23T15:08:30.961Z,25.96
2018-04-23T15:10:57.416Z,25.91
2018-04-23T15:13:24.074Z,25.83
2018-04-23T15:15:50.651Z,26.01
2018-04-23T15:18:17.130Z,25.96
2018-04-23T15:20:43.604Z,25.86
2018-04-23T15:23:10.115Z,25.83
2018-04-23T15:25:36.680Z,25.73
2018-04-23T15:28:03.253Z,25.72
2018-04-23T15:30:29.744Z,25.64
2018-04-23T15:32:56.128Z,25.67
2018-04-23T15:35:22.622Z,25.59
2018-04-23T15:37:49.121Z,25.51
2018-04-23T15:40:15.641Z,25.46
2018-04-23T15:42:42.107Z,25.54
2018-04-23T15:45:08.586Z,25.41
2018-04-23T15:47:35.037Z,25.43
2018-04-23T15:50:01.492Z,25.38
2018-04-23T15:52:28.026Z,25.39
2018-04-23T15:54:55.980Z,25.37
2018-04-23T15:57:22.424Z,25.27
2018-04-23T16:00:03.723Z,25.30
2018-04-23T16:02:30.184Z,25.17
2018-04-23T16:04:56.695Z,25.15
2018-04-23T16:07:23.172Z,25.00
2018-04-23T16:20:37.023Z,24.68
2018-04-23T16:23:03.793Z,24.61
2018-04-23T16:25:30.422Z,24.69
2018-04-23T16:27:57.239Z,24.49
2018-04-23T16:30:23.717Z,24.60
2018-04-23T16:32:50.100Z,24.58
2018-04-23T16:35:16.833Z,24.56
2018-04-23T16:37:43.384Z,24.56
2018-04-23T16:40:09.849Z,24.46
2018-04-23T16:42:36.641Z,24.41
2018-04-23T16:45:03.583Z,24.44
2018-04-23T16:47:29.966Z,24.43
2018-04-23T16:49:56.492Z,24.40
2018-04-23T16:52:22.992Z,24.35
2018-04-23T16:54:49.456Z,24.34
2018-04-23T16:57:15.980Z,24.31
2018-04-23T16:59:42.576Z,24.38
2018-04-23T17:02:09.001Z,24.27
2018-04-23T17:04:35.516Z,24.17
2018-04-23T17:07:01.917Z,24.17
2018-04-23T17:09:28.351Z,24.12
2018-04-23T17:11:54.930Z,24.11
2018-04-23T17:14:21.438Z,24.11
2018-04-23T17:16:47.829Z,24.04
2018-04-23T17:19:14.472Z,24.02
2018-04-23T17:21:40.887Z,23.94
2018-04-23T17:24:07.471Z,23.91
2018-04-23T17:26:33.888Z,23.88
2018-04-23T17:29:00.342Z,23.84
2018-04-23T17:31:26.745Z,23.81
2018-04-23T17:33:53.232Z,23.76
2018-04-23T17:36:19.792Z,23.74
2018-04-23T17:38:46.197Z,23.72
2018-04-23T17:41:12.681Z,23.69
2018-04-23T17:43:39.180Z,23.66
2018-04-23T17:46:05.607Z,23.61
2018-04-23T17:48:32.035Z,23.59
2018-04-23T17:50:58.637Z,23.57
2018-04-23T17:53:25.088Z,23.52
2018-04-23T17:55:51.432Z,23.48
2018-04-23T17:58:17.838Z,23.46
2018-04-23T18:00:44.427Z,23.43
2018-04-23T18:03:10.744Z,23.42
2018-04-23T18:05:37.220Z,23.35
2018-04-23T18:08:03.753Z,23.37
2018-04-23T18:13:17.931Z,23.30
2018-04-23T18:15:44.464Z,23.29
2018-04-23T18:18:10.997Z,23.21
2018-04-23T18:20:37.379Z,23.13
2018-04-23T18:23:03.808Z,23.08
2018-04-23T18:25:30.357Z,23.04
2018-04-23T18:27:56.739Z,22.98
2018-04-23T18:30:23.146Z,22.95
2018-04-23T18:32:49.618Z,22.90
2018-04-23T18:35:16.024Z,22.78
2018-04-23T18:37:42.595Z,22.74
2018-04-23T18:40:09.132Z,22.73
2018-04-23T18:42:35.558Z,22.65
2018-04-23T18:45:02.244Z,22.58
2018-04-23T18:47:28.749Z,22.55
2018-04-23T18:49:55.222Z,22.44
2018-04-23T18:52:21.721Z,22.39
2018-04-23T18:54:48.137Z,22.25
2018-04-23T18:57:14.570Z,22.21
2018-04-23T18:59:40.992Z,22.21
2018-04-23T19:02:07.433Z,22.16
2018-04-23T19:04:33.923Z,22.08
2018-04-23T19:07:00.388Z,22.02
2018-04-23T19:09:26.868Z,21.95
2018-04-23T19:12:00.369Z,21.96
2018-04-23T19:14:27.732Z,21.88
2018-04-23T19:16:54.213Z,21.75
2018-04-23T19:19:20.734Z,21.69
2018-04-23T19:21:47.249Z,21.60
2018-04-23T19:24:13.671Z,21.53
2018-04-23T19:26:40.070Z,21.47
2018-04-23T19:29:06.698Z,21.39
2018-04-23T19:31:33.125Z,21.33
2018-04-23T19:33:59.488Z,21.29
2018-04-23T19:36:26.071Z,21.21
2018-04-23T19:38:52.584Z,21.16
2018-04-23T19:41:19.109Z,21.10
2018-04-23T19:43:45.670Z,21.00
2018-04-23T19:46:12.139Z,21.00
2018-04-23T19:48:38.759Z,20.92
2018-04-23T19:51:05.268Z,20.92
2018-04-23T19:53:31.701Z,20.85
2018-04-23T19:55:58.179Z,20.77
2018-04-23T19:58:24.611Z,20.70
2018-04-23T20:00:51.036Z,20.64
2018-04-23T20:03:17.543Z,20.59
2018-04-23T20:05:43.972Z,20.57
2018-04-23T20:08:10.553Z,20.59
2018-04-23T20:10:36.894Z,20.56
2018-04-23T20:13:03.352Z,20.57
2018-04-23T20:15:29.876Z,20.53
2018-04-23T20:17:56.286Z,20.46
2018-04-23T20:20:22.684Z,20.34
2018-04-23T20:22:49.121Z,20.34
2018-04-23T20:25:15.572Z,20.35
2018-04-23T20:27:42.049Z,20.34
2018-04-23T20:30:08.429Z,20.26
2018-04-23T20:32:34.843Z,20.26
2018-04-23T20:35:01.321Z,20.28
2018-04-23T20:37:27.711Z,20.25
2018-04-23T20:39:54.278Z,20.23
2018-04-23T20:42:20.633Z,20.15
2018-04-23T20:44:47.007Z,20.11
2018-04-23T20:47:13.434Z,20.09
2018-04-23T20:49:39.949Z,20.09
2018-04-23T20:52:06.351Z,20.05
2018-04-23T20:54:32.680Z,20.00
2018-04-23T20:56:59.213Z,20.00
2018-04-23T20:59:25.874Z,19.97
2018-04-23T21:01:52.307Z,19.91
2018-04-23T21:04:18.833Z,19.84
2018-04-23T21:06:45.328Z,19.85
2018-04-23T21:09:11.858Z,19.83
2018-04-23T21:11:38.379Z,19.85
2018-04-23T21:14:04.852Z,19.88
2018-04-23T21:16:31.345Z,19.89
2018-04-23T21:18:57.776Z,19.85
2018-04-23T21:21:24.127Z,19.82
2018-04-23T21:23:50.681Z,19.78
2018-04-23T21:26:17.499Z,19.72
2018-04-23T21:28:43.916Z,19.63
2018-04-23T21:31:10.358Z,19.55
2018-04-23T21:33:36.746Z,19.52
2018-04-23T21:36:03.205Z,19.50
2018-04-23T21:38:29.601Z,19.47
2018-04-23T21:40:55.919Z,19.41
2018-04-23T21:43:22.281Z,19.36
2018-04-23T21:45:48.813Z,19.37
2018-04-23T21:48:15.276Z,19.28
2018-04-23T21:50:41.581Z,19.22
2018-04-23T21:53:08.068Z,19.14
2018-04-23T21:55:34.464Z,19.13
2018-04-23T21:58:00.840Z,19.06
2018-04-23T22:00:27.222Z,19.05
2018-04-23T22:02:53.723Z,18.98
2018-04-23T22:05:20.465Z,19.00
2018-04-23T22:07:46.785Z,18.99
2018-04-23T22:10:13.163Z,18.95
2018-04-23T22:12:39.611Z,18.88
2018-04-23T22:15:06.100Z,18.85
2018-04-23T22:17:32.644Z,18.78
2018-04-23T22:19:59.095Z,18.69
2018-04-23T22:22:25.627Z,18.68
2018-04-23T22:24:51.999Z,18.62
2018-04-23T22:27:18.468Z,18.58
2018-04-23T22:29:44.861Z,18.54
2018-04-23T22:32:11.434Z,18.51
2018-04-23T22:34:37.840Z,18.53
2018-04-23T22:37:04.233Z,18.52
2018-04-23T22:39:30.713Z,18.54
2018-04-23T22:41:57.157Z,18.51
2018-04-23T22:44:23.597Z,18.50
2018-04-23T22:46:50.015Z,18.43
2018-04-23T22:49:16.393Z,18.37
2018-04-23T22:51:42.789Z,18.33
2018-04-23T22:54:09.252Z,18.31
2018-04-23T22:56:35.820Z,18.25
2018-04-23T22:59:02.170Z,18.23
2018-04-23T23:01:28.643Z,18.17
2018-04-23T23:17:52.341Z,18.86
2018-04-23T23:20:18.864Z,18.72
2018-04-23T23:22:45.377Z,18.55
2018-04-23T23:25:11.938Z,18.43
2018-04-23T23:27:38.465Z,18.34
2018-04-23T23:30:05.069Z,18.29
2018-04-23T23:32:31.687Z,18.16
2018-04-23T23:34:58.263Z,18.09
2018-04-23T23:37:24.924Z,17.99
2018-04-23T23:39:51.473Z,17.97
2018-04-23T23:42:18.137Z,17.86
2018-04-23T23:44:44.683Z,17.81
2018-04-23T23:47:11.365Z,17.81
2018-04-23T23:49:37.961Z,17.82
2018-04-23T23:52:04.516Z,17.87
2018-04-23T23:54:31.047Z,17.87
2018-04-23T23:56:57.607Z,17.87
2018-04-23T23:59:24.134Z,17.87
